createdAt,value
2023-04-18T00:00:09.108Z,679.00
2023-04-18T00:01:09.143Z,689.00
2023-04-18T00:02:09.276Z,669.00
2023-04-18T00:03:09.420Z,655.00
2023-04-18T00:04:09.424Z,710.00
2023-04-18T00:05:09.362Z,677.00
2023-04-18T00:06:09.300Z,651.00
2023-04-18T00:07:09.357Z,662.00
2023-04-18T00:08:09.371Z,657.00
2023-04-18T00:09:09.482Z,629.00
2023-04-18T00:10:09.450Z,635.00
2023-04-18T00:11:09.468Z,633.00
2023-04-18T00:12:09.510Z,638.00
2023-04-18T00:13:09.545Z,641.00
2023-04-18T00:14:09.571Z,635.00
2023-04-18T00:15:09.635Z,640.00
2023-04-18T00:16:09.636Z,652.00
2023-04-18T00:17:09.748Z,740.00
2023-04-18T00:18:09.735Z,737.00
2023-04-18T00:19:09.736Z,738.00
2023-04-18T00:20:09.791Z,731.00
2023-04-18T00:21:09.823Z,666.00
2023-04-18T00:22:09.861Z,660.00
2023-04-18T00:23:11.536Z,661.00
2023-04-18T00:24:09.896Z,656.00
2023-04-18T00:25:09.858Z,670.00
2023-04-18T00:26:09.844Z,702.00
2023-04-18T00:27:09.843Z,691.00
2023-04-18T00:28:09.870Z,661.00
2023-04-18T00:29:09.843Z,670.00
2023-04-18T00:30:09.840Z,719.00
2023-04-18T00:31:09.850Z,710.00
2023-04-18T00:32:09.825Z,706.00
2023-04-18T00:33:09.805Z,726.00
2023-04-18T00:34:09.829Z,776.00
2023-04-18T00:35:09.780Z,773.00
2023-04-18T00:36:09.781Z,807.00
2023-04-18T00:37:09.764Z,790.00
2023-04-18T00:38:09.767Z,784.00
2023-04-18T00:39:09.770Z,786.00
2023-04-18T00:40:09.756Z,785.00
2023-04-18T00:41:09.732Z,792.00
2023-04-18T00:42:09.740Z,817.00
2023-04-18T00:43:09.746Z,814.00
2023-04-18T00:44:09.743Z,811.00
2023-04-18T00:45:09.714Z,802.00
2023-04-18T00:46:09.733Z,807.00
2023-04-18T00:47:09.718Z,787.00
2023-04-18T00:48:09.687Z,790.00
2023-04-18T00:49:09.701Z,789.00
2023-04-18T00:50:09.699Z,810.00
2023-04-18T00:51:09.704Z,851.00
2023-04-18T00:52:09.682Z,832.00
2023-04-18T00:53:09.669Z,879.00
2023-04-18T00:54:09.683Z,904.00
2023-04-18T00:55:09.657Z,892.00
2023-04-18T00:56:09.629Z,852.00
2023-04-18T00:57:09.642Z,901.00
2023-04-18T00:58:09.623Z,876.00
2023-04-18T00:59:09.629Z,868.00
2023-04-18T01:00:09.630Z,898.00
2023-04-18T01:01:09.641Z,942.00
2023-04-18T01:02:09.614Z,985.00
2023-04-18T01:03:09.687Z,946.00
2023-04-18T01:04:09.716Z,982.00
2023-04-18T01:05:09.599Z,967.00
2023-04-18T01:06:09.555Z,943.00
2023-04-18T01:07:09.551Z,903.00
2023-04-18T01:08:09.544Z,879.00
2023-04-18T01:09:09.554Z,907.00
2023-04-18T01:10:09.555Z,878.00
2023-04-18T01:11:09.547Z,930.00
2023-04-18T01:12:09.539Z,922.00
2023-04-18T01:13:09.510Z,1031.00
2023-04-18T01:14:09.528Z,1020.00
2023-04-18T01:15:09.566Z,1015.00
2023-04-18T01:16:09.653Z,974.00
2023-04-18T01:17:09.607Z,893.00
2023-04-18T01:18:09.657Z,900.00
2023-04-18T01:19:09.664Z,871.00
2023-04-18T01:20:09.712Z,883.00
2023-04-18T01:21:09.730Z,918.00
2023-04-18T01:22:09.760Z,944.00
2023-04-18T01:23:09.801Z,952.00
2023-04-18T01:24:09.827Z,959.00
2023-04-18T01:25:09.924Z,938.00
2023-04-18T01:26:09.913Z,920.00
2023-04-18T01:27:09.928Z,894.00
2023-04-18T01:28:09.979Z,924.00
2023-04-18T01:29:10.013Z,944.00
2023-04-18T01:30:10.069Z,902.00
2023-04-18T01:31:10.152Z,928.00
2023-04-18T01:32:10.111Z,1025.00
2023-04-18T01:33:10.161Z,1058.00
2023-04-18T01:34:10.201Z,1064.00
2023-04-18T01:35:10.242Z,1049.00
2023-04-18T01:36:10.269Z,1022.00
2023-04-18T01:37:10.326Z,1012.00
2023-04-18T01:38:10.369Z,1015.00
2023-04-18T01:39:10.392Z,1024.00
2023-04-18T01:40:10.442Z,962.00
2023-04-18T01:41:10.486Z,1012.00
2023-04-18T01:42:10.501Z,941.00
2023-04-18T01:43:10.576Z,960.00
2023-04-18T01:44:10.604Z,958.00
2023-04-18T01:45:10.677Z,955.00
2023-04-18T01:46:10.685Z,915.00
2023-04-18T01:47:10.741Z,913.00
2023-04-18T01:48:10.724Z,927.00
2023-04-18T01:49:10.791Z,930.00
2023-04-18T01:50:10.817Z,899.00
2023-04-18T01:51:10.866Z,898.00
2023-04-18T01:52:10.878Z,882.00
2023-04-18T01:53:10.916Z,871.00
2023-04-18T01:54:10.960Z,795.00
2023-04-18T01:55:10.972Z,780.00
2023-04-18T01:56:10.997Z,784.00
2023-04-18T01:57:11.059Z,778.00
2023-04-18T01:58:11.044Z,804.00
2023-04-18T01:59:11.105Z,744.00
2023-04-18T02:00:11.131Z,700.00
2023-04-18T02:01:11.197Z,702.00
2023-04-18T02:02:11.285Z,689.00
2023-04-18T02:03:11.334Z,748.00
2023-04-18T02:04:11.294Z,799.00
2023-04-18T02:05:11.307Z,865.00
2023-04-18T02:06:11.515Z,823.00
2023-04-18T02:07:11.336Z,816.00
2023-04-18T02:08:11.351Z,780.00
2023-04-18T02:09:11.400Z,850.00
2023-04-18T02:10:11.415Z,874.00
2023-04-18T02:11:11.486Z,902.00
2023-04-18T02:12:11.472Z,911.00
2023-04-18T02:13:11.553Z,936.00
2023-04-18T02:14:11.818Z,916.00
2023-04-18T02:15:11.644Z,927.00
2023-04-18T02:16:11.682Z,1008.00
2023-04-18T02:17:11.643Z,1012.00
2023-04-18T02:18:11.688Z,1013.00
2023-04-18T02:19:11.692Z,1014.00
2023-04-18T02:20:11.739Z,1006.00
2023-04-18T02:21:11.772Z,957.00
2023-04-18T02:22:11.786Z,978.00
2023-04-18T02:23:11.841Z,925.00
2023-04-18T02:24:12.109Z,896.00
2023-04-18T02:25:11.904Z,943.00
2023-04-18T02:26:11.951Z,947.00
2023-04-18T02:27:11.989Z,991.00
2023-04-18T02:28:12.009Z,955.00
2023-04-18T02:29:12.038Z,965.00
2023-04-18T02:30:12.084Z,917.00
2023-04-18T02:31:12.088Z,967.00
2023-04-18T02:32:12.256Z,984.00
2023-04-18T02:33:12.155Z,999.00
2023-04-18T02:34:12.359Z,956.00
2023-04-18T02:35:12.230Z,951.00
2023-04-18T02:36:12.257Z,915.00
2023-04-18T02:37:12.306Z,954.00
2023-04-18T02:38:12.307Z,995.00
2023-04-18T02:39:12.373Z,1008.00
2023-04-18T02:40:12.383Z,972.00
2023-04-18T02:41:12.408Z,977.00
2023-04-18T02:42:12.459Z,1024.00
2023-04-18T02:43:12.477Z,1003.00
2023-04-18T02:44:12.776Z,959.00
2023-04-18T02:45:12.561Z,1018.00
2023-04-18T02:46:12.612Z,1052.00
2023-04-18T02:47:12.613Z,1044.00
2023-04-18T02:48:12.731Z,1054.00
2023-04-18T02:49:12.698Z,1061.00
2023-04-18T02:50:12.719Z,1055.00
2023-04-18T02:51:12.776Z,1062.00
2023-04-18T02:52:12.785Z,1074.00
2023-04-18T02:53:12.854Z,1048.00
2023-04-18T02:54:13.144Z,1056.00
2023-04-18T02:55:12.897Z,1044.00
2023-04-18T02:56:12.933Z,1019.00
2023-04-18T02:57:12.997Z,1054.00
2023-04-18T02:58:13.015Z,1076.00
2023-04-18T02:59:13.035Z,1092.00
2023-04-18T03:00:13.068Z,1108.00
2023-04-18T03:01:13.130Z,1109.00
2023-04-18T03:02:13.211Z,1070.00
2023-04-18T03:03:13.225Z,1057.00
2023-04-18T03:04:13.610Z,1026.00
2023-04-18T03:05:13.265Z,1044.00
2023-04-18T03:06:13.287Z,1069.00
2023-04-18T03:07:13.307Z,1076.00
2023-04-18T03:08:13.351Z,1030.00
2023-04-18T03:09:13.400Z,972.00
2023-04-18T03:10:13.428Z,925.00
2023-04-18T03:11:13.464Z,982.00
2023-04-18T03:12:13.510Z,1027.00
2023-04-18T03:13:13.517Z,960.00
2023-04-18T03:14:13.642Z,940.00
2023-04-18T03:15:13.569Z,886.00
2023-04-18T03:16:13.658Z,892.00
2023-04-18T03:17:13.634Z,938.00
2023-04-18T03:18:13.676Z,970.00
2023-04-18T03:19:13.709Z,923.00
2023-04-18T03:20:13.728Z,865.00
2023-04-18T03:21:13.781Z,919.00
2023-04-18T03:22:13.800Z,927.00
2023-04-18T03:23:13.839Z,944.00
2023-04-18T03:24:14.055Z,934.00
2023-04-18T03:25:13.886Z,943.00
2023-04-18T03:26:13.974Z,969.00
2023-04-18T03:27:13.968Z,930.00
2023-04-18T03:28:14.003Z,896.00
2023-04-18T03:29:14.035Z,896.00
2023-04-18T03:30:14.083Z,910.00
2023-04-18T03:31:14.092Z,971.00
2023-04-18T03:32:14.107Z,916.00
2023-04-18T03:33:14.147Z,980.00
2023-04-18T03:34:14.363Z,974.00
2023-04-18T03:35:14.241Z,917.00
2023-04-18T03:36:14.279Z,912.00
2023-04-18T03:37:14.318Z,944.00
2023-04-18T03:38:14.327Z,878.00
2023-04-18T03:39:14.354Z,888.00
2023-04-18T03:40:14.420Z,937.00
2023-04-18T03:41:14.464Z,882.00
2023-04-18T03:42:14.474Z,907.00
2023-04-18T03:43:14.522Z,896.00
2023-04-18T03:44:14.858Z,873.00
2023-04-18T03:45:14.597Z,891.00
2023-04-18T03:46:14.695Z,858.00
2023-04-18T03:47:14.662Z,848.00
2023-04-18T03:48:14.678Z,854.00
2023-04-18T03:49:14.712Z,908.00
2023-04-18T03:50:14.741Z,913.00
2023-04-18T03:51:14.900Z,963.00
2023-04-18T03:52:14.841Z,917.00
2023-04-18T03:53:14.854Z,921.00
2023-04-18T03:54:15.097Z,884.00
2023-04-18T03:55:14.941Z,853.00
2023-04-18T03:56:14.962Z,855.00
2023-04-18T03:57:15.022Z,860.00
2023-04-18T03:58:15.051Z,906.00
2023-04-18T03:59:15.065Z,860.00
2023-04-18T04:00:15.123Z,919.00
2023-04-18T04:01:15.145Z,928.00
2023-04-18T04:02:15.286Z,899.00
2023-04-18T04:03:15.326Z,935.00
2023-04-18T04:04:15.657Z,880.00
2023-04-18T04:05:15.307Z,905.00
2023-04-18T04:06:15.339Z,848.00
2023-04-18T04:07:15.401Z,878.00
2023-04-18T04:08:15.405Z,825.00
2023-04-18T04:09:15.418Z,832.00
2023-04-18T04:10:15.454Z,840.00
2023-04-18T04:11:15.492Z,880.00
2023-04-18T04:12:15.548Z,936.00
2023-04-18T04:13:15.549Z,991.00
2023-04-18T04:14:15.766Z,946.00
2023-04-18T04:15:15.612Z,976.00
2023-04-18T04:16:15.699Z,921.00
2023-04-18T04:17:15.687Z,878.00
2023-04-18T04:18:15.746Z,948.00
2023-04-18T04:19:15.764Z,951.00
2023-04-18T04:20:15.816Z,932.00
2023-04-18T04:21:15.846Z,917.00
2023-04-18T04:22:15.881Z,902.00
2023-04-18T04:23:15.917Z,895.00
2023-04-18T04:24:16.194Z,893.00
2023-04-18T04:25:15.999Z,835.00
2023-04-18T04:26:16.035Z,826.00
2023-04-18T04:27:16.056Z,738.00
2023-04-18T04:28:16.104Z,696.00
2023-04-18T04:29:16.133Z,692.00
2023-04-18T04:30:16.161Z,736.00
2023-04-18T04:31:16.330Z,718.00
2023-04-18T04:32:16.237Z,728.00
2023-04-18T04:33:16.328Z,754.00
2023-04-18T04:34:16.427Z,830.00
2023-04-18T04:35:16.353Z,847.00
2023-04-18T04:36:18.587Z,861.00
2023-04-18T04:37:16.628Z,843.00
2023-04-18T04:38:16.656Z,844.00
2023-04-18T04:39:16.695Z,848.00
2023-04-18T04:40:16.734Z,888.00
2023-04-18T04:41:16.771Z,876.00
2023-04-18T04:42:16.791Z,888.00
2023-04-18T04:43:16.839Z,904.00
2023-04-18T04:44:16.940Z,913.00
2023-04-18T04:45:16.917Z,967.00
2023-04-18T04:46:16.994Z,1019.00
2023-04-18T04:47:17.004Z,1029.00
2023-04-18T04:48:17.027Z,1028.00
2023-04-18T04:49:17.058Z,1013.00
2023-04-18T04:50:17.112Z,1018.00
2023-04-18T04:51:17.149Z,1025.00
2023-04-18T04:52:17.155Z,1030.00
2023-04-18T04:53:17.189Z,1077.00
2023-04-18T04:54:17.263Z,1066.00
2023-04-18T04:55:17.292Z,1014.00
2023-04-18T04:56:17.330Z,996.00
2023-04-18T04:57:17.369Z,966.00
2023-04-18T04:58:17.380Z,999.00
2023-04-18T04:59:17.382Z,996.00
2023-04-18T05:00:17.395Z,952.00
2023-04-18T05:01:17.376Z,923.00
2023-04-18T05:02:17.465Z,908.00
2023-04-18T05:03:17.473Z,872.00
2023-04-18T05:04:17.823Z,863.00
2023-04-18T05:05:17.357Z,855.00
2023-04-18T05:06:17.334Z,847.00
2023-04-18T05:07:17.316Z,861.00
2023-04-18T05:08:17.345Z,835.00
2023-04-18T05:09:17.336Z,859.00
2023-04-18T05:10:17.325Z,903.00
2023-04-18T05:11:17.348Z,919.00
2023-04-18T05:12:17.378Z,947.00
2023-04-18T05:13:17.445Z,963.00
2023-04-18T05:14:17.495Z,970.00
2023-04-18T05:15:17.463Z,996.00
2023-04-18T05:16:17.529Z,1033.00
2023-04-18T05:17:17.537Z,1077.00
2023-04-18T05:18:17.573Z,1175.00
2023-04-18T05:19:17.601Z,1207.00
2023-04-18T05:20:17.628Z,1267.00
2023-04-18T05:21:17.642Z,1296.00
2023-04-18T05:22:17.712Z,1322.00
2023-04-18T05:23:17.734Z,1332.00
2023-04-18T05:24:17.728Z,1381.00
2023-04-18T05:25:17.801Z,1406.00
2023-04-18T05:26:17.782Z,1404.00
2023-04-18T05:27:18.295Z,1405.00
2023-04-18T05:28:18.130Z,1431.00
2023-04-18T05:29:17.884Z,1488.00
2023-04-18T05:30:17.893Z,1654.00
2023-04-18T05:31:17.947Z,1680.00
2023-04-18T05:32:17.950Z,1659.00
2023-04-18T05:33:18.005Z,1662.00
2023-04-18T05:34:18.028Z,1688.00
2023-04-18T05:35:18.015Z,1627.00
2023-04-18T05:36:18.043Z,1678.00
2023-04-18T05:37:18.105Z,1897.00
2023-04-18T05:38:18.113Z,1883.00
2023-04-18T05:39:18.099Z,1938.00
2023-04-18T05:40:18.160Z,1907.00
2023-04-18T05:41:18.159Z,1917.00
2023-04-18T05:42:18.223Z,1952.00
2023-04-18T05:43:18.186Z,1988.00
2023-04-18T05:44:18.520Z,2031.00
2023-04-18T05:45:18.191Z,2044.00
2023-04-18T05:46:18.158Z,2043.00
2023-04-18T05:47:18.168Z,2034.00
2023-04-18T05:48:18.187Z,2076.00
2023-04-18T05:49:18.201Z,2087.00
2023-04-18T05:50:18.239Z,2182.00
2023-04-18T05:51:18.230Z,2153.00
2023-04-18T05:52:18.284Z,2146.00
2023-04-18T05:53:18.300Z,2129.00
2023-04-18T05:54:18.381Z,2138.00
2023-04-18T05:55:18.641Z,2133.00
2023-04-18T05:56:18.499Z,2176.00
2023-04-18T05:57:18.573Z,2155.00
2023-04-18T05:58:18.647Z,2131.00
2023-04-18T05:59:18.690Z,2131.00
2023-04-18T06:00:18.784Z,2171.00
2023-04-18T06:01:18.828Z,2236.00
2023-04-18T06:02:18.961Z,2247.00
2023-04-18T06:03:19.289Z,2223.00
2023-04-18T06:04:19.242Z,2219.00
2023-04-18T06:05:19.234Z,2184.00
2023-04-18T06:06:19.065Z,2182.00
2023-04-18T06:07:19.105Z,2170.00
2023-04-18T06:08:19.609Z,2148.00
2023-04-18T06:09:19.212Z,2162.00
2023-04-18T06:10:19.273Z,2137.00
2023-04-18T06:11:19.317Z,2021.00
2023-04-18T06:12:19.344Z,1898.00
2023-04-18T06:13:19.402Z,1762.00
2023-04-18T06:14:19.467Z,1621.00
2023-04-18T06:15:19.490Z,1769.00
2023-04-18T06:16:19.540Z,1814.00
2023-04-18T06:17:19.525Z,1873.00
2023-04-18T06:18:19.602Z,1950.00
2023-04-18T06:19:19.656Z,1877.00
2023-04-18T06:20:19.727Z,1932.00
2023-04-18T06:21:19.798Z,1978.00
2023-04-18T06:22:19.867Z,1992.00
2023-04-18T06:23:20.143Z,2029.00
2023-04-18T06:24:19.993Z,2028.00
2023-04-18T06:25:20.017Z,2053.00
2023-04-18T06:26:20.077Z,2052.00
2023-04-18T06:27:30.507Z,2014.00
2023-04-18T06:28:21.143Z,2011.00
2023-04-18T06:29:20.091Z,1978.00
2023-04-18T06:30:20.118Z,1835.00
2023-04-18T06:31:20.118Z,1824.00
2023-04-18T06:32:20.106Z,1791.00
2023-04-18T06:33:20.123Z,1903.00
2023-04-18T06:34:20.106Z,1942.00
2023-04-18T06:35:20.048Z,2486.00
2023-04-18T06:36:20.101Z,2255.00
2023-04-18T06:37:20.047Z,2139.00
2023-04-18T06:38:20.067Z,2141.00
2023-04-18T06:39:20.109Z,2129.00
2023-04-18T06:40:20.147Z,2152.00
2023-04-18T06:41:20.184Z,2196.00
2023-04-18T06:42:22.012Z,2314.00
2023-04-18T06:43:20.250Z,2182.00
2023-04-18T06:44:20.341Z,2108.00
2023-04-18T06:45:20.659Z,2115.00
2023-04-18T06:46:20.467Z,2011.00
2023-04-18T06:47:20.412Z,2016.00
2023-04-18T06:48:20.447Z,2029.00
2023-04-18T06:49:23.419Z,2077.00
2023-04-18T06:50:21.501Z,2078.00
2023-04-18T06:51:20.466Z,2068.00
2023-04-18T06:52:20.433Z,2061.00
2023-04-18T06:53:20.477Z,2079.00
2023-04-18T06:54:20.427Z,2137.00
2023-04-18T06:55:20.433Z,2166.00
2023-04-18T06:56:20.406Z,2135.00
2023-04-18T06:57:20.399Z,2112.00
2023-04-18T06:58:21.154Z,2186.00
2023-04-18T06:59:20.407Z,2252.00
2023-04-18T07:00:20.399Z,2084.00
2023-04-18T07:01:20.472Z,2088.00
2023-04-18T07:02:20.449Z,2138.00
2023-04-18T07:03:21.011Z,2163.00
2023-04-18T07:04:20.517Z,2141.00
2023-04-18T07:05:20.363Z,2120.00
2023-04-18T07:06:20.361Z,2020.00
2023-04-18T07:07:20.355Z,1948.00
2023-04-18T07:08:20.359Z,1962.00
2023-04-18T07:09:20.382Z,1915.00
2023-04-18T07:10:20.390Z,1970.00
2023-04-18T07:11:20.424Z,1943.00
2023-04-18T07:12:20.423Z,1884.00
2023-04-18T07:13:20.486Z,1773.00
2023-04-18T07:14:20.484Z,1776.00
2023-04-18T07:15:20.546Z,1795.00
2023-04-18T07:16:20.607Z,1771.00
2023-04-18T07:17:20.541Z,1813.00
2023-04-18T07:18:30.339Z,1636.00
2023-04-18T07:19:21.643Z,1640.00
2023-04-18T07:20:20.546Z,1662.00
2023-04-18T07:21:20.536Z,1715.00
2023-04-18T07:22:20.541Z,1790.00
2023-04-18T07:23:20.551Z,1792.00
2023-04-18T07:24:20.567Z,1790.00
2023-04-18T07:25:20.553Z,1875.00
2023-04-18T07:26:20.565Z,1896.00
2023-04-18T07:27:20.521Z,1776.00
2023-04-18T07:28:20.502Z,1759.00
2023-04-18T07:29:20.516Z,1758.00
2023-04-18T07:30:20.687Z,1830.00
2023-04-18T07:31:20.599Z,1782.00
2023-04-18T07:32:20.563Z,1819.00
2023-04-18T07:33:20.474Z,1840.00
2023-04-18T07:34:20.681Z,1843.00
2023-04-18T07:35:20.656Z,1870.00
2023-04-18T07:36:20.489Z,1866.00
2023-04-18T07:37:20.495Z,1794.00
2023-04-18T07:38:20.581Z,1737.00
2023-04-18T07:39:20.564Z,1756.00
2023-04-18T07:40:20.674Z,1809.00
2023-04-18T07:41:20.593Z,1727.00
2023-04-18T07:42:21.157Z,1731.00
2023-04-18T07:43:20.957Z,1752.00
2023-04-18T07:44:20.667Z,1722.00
2023-04-18T07:45:20.635Z,1729.00
2023-04-18T07:46:20.699Z,1730.00
2023-04-18T07:47:22.296Z,1792.00
2023-04-18T07:48:20.689Z,1767.00
2023-04-18T07:49:21.166Z,1778.00
2023-04-18T07:50:20.708Z,1835.00
2023-04-18T07:51:20.763Z,1866.00
2023-04-18T07:52:20.812Z,1878.00
2023-04-18T07:53:20.901Z,1889.00
2023-04-18T07:54:20.976Z,1853.00
2023-04-18T07:55:21.033Z,1827.00
2023-04-18T07:56:21.062Z,1709.00
2023-04-18T07:57:21.123Z,1757.00
2023-04-18T07:58:21.168Z,1847.00
2023-04-18T07:59:21.251Z,1824.00
2023-04-18T08:00:21.280Z,1820.00
2023-04-18T08:01:21.324Z,1853.00
2023-04-18T08:02:21.540Z,1913.00
2023-04-18T08:03:21.499Z,1905.00
2023-04-18T08:04:21.616Z,1909.00
2023-04-18T08:05:21.597Z,1930.00
2023-04-18T08:06:21.590Z,1920.00
2023-04-18T08:07:21.645Z,1894.00
2023-04-18T08:08:22.698Z,1856.00
2023-04-18T08:09:21.926Z,1894.00
2023-04-18T08:10:23.733Z,1889.00
2023-04-18T08:11:21.863Z,1848.00
2023-04-18T08:12:21.923Z,1672.00
2023-04-18T08:13:21.984Z,1675.00
2023-04-18T08:14:22.179Z,1679.00
2023-04-18T08:15:22.133Z,1640.00
2023-04-18T08:16:22.147Z,1614.00
2023-04-18T08:17:22.076Z,1564.00
2023-04-18T08:18:22.069Z,1667.00
2023-04-18T08:19:22.202Z,1741.00
2023-04-18T08:20:22.076Z,1730.00
2023-04-18T08:21:22.185Z,1695.00
2023-04-18T08:22:22.109Z,1693.00
2023-04-18T08:23:22.155Z,1728.00
2023-04-18T08:24:22.181Z,1767.00
2023-04-18T08:25:22.116Z,1768.00
2023-04-18T08:26:22.157Z,1680.00
2023-04-18T08:27:22.148Z,1703.00
2023-04-18T08:28:22.180Z,1739.00
2023-04-18T08:29:22.177Z,1737.00
2023-04-18T08:30:22.141Z,1614.00
2023-04-18T08:31:22.145Z,1615.00
2023-04-18T08:32:22.184Z,1763.00
2023-04-18T08:33:22.151Z,1799.00
2023-04-18T08:34:22.157Z,1806.00
2023-04-18T08:35:22.155Z,1715.00
2023-04-18T08:36:22.160Z,1675.00
2023-04-18T08:37:22.164Z,1690.00
2023-04-18T08:38:22.188Z,1733.00
2023-04-18T08:39:23.679Z,1640.00
2023-04-18T08:40:22.222Z,1677.00
2023-04-18T08:41:22.215Z,1717.00
2023-04-18T08:42:22.191Z,1754.00
2023-04-18T08:43:22.242Z,1819.00
2023-04-18T08:44:22.228Z,1869.00
2023-04-18T08:45:22.171Z,1905.00
2023-04-18T08:46:22.358Z,1911.00
2023-04-18T08:47:22.251Z,1944.00
2023-04-18T08:48:22.182Z,1947.00
2023-04-18T08:49:22.176Z,1990.00
2023-04-18T08:50:22.147Z,1998.00
2023-04-18T08:51:22.164Z,2001.00
2023-04-18T08:52:22.151Z,1905.00
2023-04-18T08:53:22.121Z,1892.00
2023-04-18T08:54:22.138Z,1843.00
2023-04-18T08:55:22.236Z,1721.00
2023-04-18T08:56:22.200Z,1807.00
2023-04-18T08:57:22.128Z,1846.00
2023-04-18T08:58:22.094Z,1820.00
2023-04-18T08:59:22.074Z,1828.00
2023-04-18T09:00:22.082Z,1828.00
2023-04-18T09:01:22.182Z,1836.00
2023-04-18T09:02:22.177Z,1833.00
2023-04-18T09:03:22.060Z,1843.00
2023-04-18T09:04:22.098Z,1873.00
2023-04-18T09:05:22.065Z,1839.00
2023-04-18T09:06:22.187Z,1726.00
2023-04-18T09:07:22.063Z,1571.00
2023-04-18T09:08:22.336Z,1489.00
2023-04-18T09:09:22.011Z,1499.00
2023-04-18T09:10:22.028Z,1562.00
2023-04-18T09:11:22.260Z,1566.00
2023-04-18T09:12:22.008Z,1587.00
2023-04-18T09:13:23.552Z,1670.00
2023-04-18T09:14:22.248Z,1726.00
2023-04-18T09:15:22.233Z,1666.00
2023-04-18T09:16:22.757Z,1696.00
2023-04-18T09:17:22.364Z,1700.00
2023-04-18T09:18:22.376Z,1668.00
2023-04-18T09:19:22.454Z,1674.00
2023-04-18T09:20:22.514Z,1691.00
2023-04-18T09:21:22.695Z,1693.00
2023-04-18T09:22:22.637Z,1665.00
2023-04-18T09:23:22.712Z,1687.00
2023-04-18T09:24:22.767Z,1694.00
2023-04-18T09:25:23.222Z,1688.00
2023-04-18T09:26:22.932Z,1402.00
2023-04-18T09:27:22.945Z,1157.00
2023-04-18T09:28:22.912Z,1155.00
2023-04-18T09:29:22.940Z,651.00
2023-04-18T09:30:23.216Z,597.00
2023-04-18T09:31:23.251Z,483.00
2023-04-18T09:32:23.060Z,400.00
2023-04-18T09:33:23.102Z,400.00
2023-04-18T09:34:23.114Z,469.00
2023-04-18T09:35:23.112Z,505.00
2023-04-18T09:36:23.825Z,573.00
2023-04-18T09:37:23.497Z,624.00
2023-04-18T09:38:23.258Z,727.00
2023-04-18T09:39:23.248Z,898.00
2023-04-18T09:40:23.355Z,1050.00
2023-04-18T09:41:23.750Z,1112.00
2023-04-18T09:42:23.329Z,1195.00
2023-04-18T09:43:23.326Z,1313.00
2023-04-18T09:44:23.331Z,1408.00
2023-04-18T09:45:23.325Z,1506.00
2023-04-18T09:46:23.397Z,1584.00
2023-04-18T09:47:23.372Z,1665.00
2023-04-18T09:48:23.328Z,1710.00
2023-04-18T09:49:24.212Z,1735.00
2023-04-18T09:50:23.383Z,1882.00
2023-04-18T09:51:23.739Z,1803.00
2023-04-18T09:52:23.346Z,1805.00
2023-04-18T09:53:23.349Z,1892.00
2023-04-18T09:54:23.418Z,1826.00
2023-04-18T09:55:23.485Z,1814.00
2023-04-18T09:56:23.499Z,1860.00
2023-04-18T09:57:23.553Z,1848.00
2023-04-18T09:58:23.619Z,1896.00
2023-04-18T09:59:23.653Z,1918.00
2023-04-18T10:00:24.447Z,1937.00
2023-04-18T10:01:23.830Z,1964.00
2023-04-18T10:02:23.932Z,1948.00
2023-04-18T10:03:23.979Z,1892.00
2023-04-18T10:04:24.001Z,1856.00
2023-04-18T10:05:24.035Z,1876.00
2023-04-18T10:06:24.070Z,1950.00
2023-04-18T10:07:24.126Z,1969.00
2023-04-18T10:08:24.191Z,1957.00
2023-04-18T10:09:24.256Z,1890.00
2023-04-18T10:10:24.335Z,1873.00
2023-04-18T10:11:24.411Z,1866.00
2023-04-18T10:12:24.408Z,1860.00
2023-04-18T10:13:24.477Z,1906.00
2023-04-18T10:14:24.521Z,1938.00
2023-04-18T10:15:24.585Z,1977.00
2023-04-18T10:16:24.699Z,1927.00
2023-04-18T10:17:24.697Z,1906.00
2023-04-18T10:18:24.788Z,1956.00
2023-04-18T10:19:24.776Z,2011.00
2023-04-18T10:20:24.865Z,1893.00
2023-04-18T10:21:25.222Z,1179.00
2023-04-18T10:22:24.944Z,651.00
2023-04-18T10:23:26.497Z,546.00
2023-04-18T10:24:25.174Z,400.00
2023-04-18T10:25:25.197Z,413.00
2023-04-18T10:26:25.257Z,441.00
2023-04-18T10:27:25.257Z,524.00
2023-04-18T10:28:25.293Z,595.00
2023-04-18T10:29:25.337Z,640.00
2023-04-18T10:30:25.365Z,776.00
2023-04-18T10:31:25.467Z,980.00
2023-04-18T10:32:25.470Z,1220.00
2023-04-18T10:33:30.412Z,1293.00
2023-04-18T10:34:26.454Z,1293.00
2023-04-18T10:35:25.436Z,1308.00
2023-04-18T10:36:25.434Z,1386.00
2023-04-18T10:37:25.440Z,1569.00
2023-04-18T10:38:25.417Z,1946.00
2023-04-18T10:39:25.408Z,2091.00
2023-04-18T10:40:25.404Z,2047.00
2023-04-18T10:41:25.404Z,2046.00
2023-04-18T10:42:25.401Z,2124.00
2023-04-18T10:43:25.399Z,2135.00
2023-04-18T10:44:25.361Z,2202.00
2023-04-18T10:45:25.365Z,2204.00
2023-04-18T10:46:31.793Z,2204.00
2023-04-18T10:47:26.420Z,2206.00
2023-04-18T10:48:25.349Z,2219.00
2023-04-18T10:49:27.012Z,2238.00
2023-04-18T10:50:25.346Z,2294.00
2023-04-18T10:51:25.359Z,2344.00
2023-04-18T10:52:25.337Z,2434.00
2023-04-18T10:53:25.311Z,2422.00
2023-04-18T10:54:25.312Z,2435.00
2023-04-18T10:55:25.292Z,2445.00
2023-04-18T10:56:25.329Z,2487.00
2023-04-18T10:57:25.288Z,2522.00
2023-04-18T10:58:25.280Z,2532.00
2023-04-18T10:59:25.287Z,2464.00
2023-04-18T11:00:25.259Z,2438.00
2023-04-18T11:01:25.382Z,2455.00
2023-04-18T11:02:25.332Z,2486.00
2023-04-18T11:03:25.342Z,2507.00
2023-04-18T11:04:25.328Z,2435.00
2023-04-18T11:05:25.243Z,2420.00
2023-04-18T11:06:25.264Z,2436.00
2023-04-18T11:07:25.224Z,2327.00
2023-04-18T11:08:25.234Z,2399.00
2023-04-18T11:09:25.224Z,2042.00
2023-04-18T11:10:25.422Z,1762.00
2023-04-18T11:11:25.770Z,1347.00
2023-04-18T11:12:25.251Z,760.00
2023-04-18T11:13:25.215Z,488.00
2023-04-18T11:14:25.260Z,400.00
2023-04-18T11:15:25.390Z,400.00
2023-04-18T11:16:25.328Z,400.00
2023-04-18T11:17:25.289Z,400.00
2023-04-18T11:18:25.158Z,400.00
2023-04-18T11:19:25.220Z,400.00
2023-04-18T11:20:25.151Z,400.00
2023-04-18T11:21:25.159Z,400.00
2023-04-18T11:22:25.262Z,400.00
2023-04-18T11:23:25.183Z,400.00
2023-04-18T11:24:25.116Z,400.00
2023-04-18T11:25:25.114Z,400.00
2023-04-18T11:26:25.100Z,403.00
2023-04-18T11:27:25.117Z,416.00
2023-04-18T11:28:25.118Z,478.00
2023-04-18T11:29:25.115Z,512.00
2023-04-18T11:30:25.055Z,525.00
2023-04-18T11:31:25.138Z,521.00
2023-04-18T11:32:25.161Z,504.00
2023-04-18T11:33:25.065Z,502.00
2023-04-18T11:34:25.047Z,501.00
2023-04-18T11:35:25.231Z,506.00
2023-04-18T11:36:25.031Z,586.00
2023-04-18T11:37:25.041Z,621.00
2023-04-18T11:38:25.021Z,618.00
2023-04-18T11:39:25.034Z,658.00
2023-04-18T11:40:25.109Z,703.00
2023-04-18T11:41:25.167Z,665.00
2023-04-18T11:42:25.184Z,760.00
2023-04-18T11:43:25.240Z,702.00
2023-04-18T11:44:25.286Z,670.00
2023-04-18T11:45:25.370Z,640.00
2023-04-18T11:46:25.616Z,834.00
2023-04-18T11:47:25.510Z,1208.00
2023-04-18T11:48:25.510Z,1010.00
2023-04-18T11:49:25.536Z,1205.00
2023-04-18T11:50:25.633Z,1806.00
2023-04-18T11:51:25.576Z,2387.00
2023-04-18T11:52:25.542Z,2469.00
2023-04-18T11:53:25.658Z,2348.00
2023-04-18T11:54:25.615Z,2362.00
2023-04-18T11:55:25.785Z,2444.00
2023-04-18T11:56:25.742Z,2492.00
2023-04-18T11:57:25.799Z,2493.00
2023-04-18T11:58:25.845Z,2523.00
2023-04-18T11:59:25.900Z,2599.00
2023-04-18T12:00:25.934Z,2664.00
2023-04-18T12:01:26.010Z,2543.00
2023-04-18T12:02:26.149Z,2622.00
2023-04-18T12:03:26.227Z,2646.00
2023-04-18T12:04:26.387Z,2651.00
2023-04-18T12:05:26.491Z,2692.00
2023-04-18T12:06:26.297Z,2803.00
2023-04-18T12:07:26.201Z,2844.00
2023-04-18T12:08:26.196Z,2859.00
2023-04-18T12:09:26.244Z,2971.00
2023-04-18T12:10:26.315Z,3012.00
2023-04-18T12:11:26.266Z,3039.00
2023-04-18T12:12:26.304Z,3094.00
2023-04-18T12:13:26.324Z,3094.00
2023-04-18T12:14:26.330Z,3133.00
2023-04-18T12:15:26.376Z,3172.00